sensor_id;sensor_type;location;lat;lon;timestamp;P1;durP1;ratioP1;P2;durP2;ratioP2
2416;SDS011;1219;48.736;9.330;2022-08-19T00:00:07;13.03;;;11.83;;
2416;SDS011;1219;48.736;9.330;2022-08-19T00:02:33;13.43;;;12.27;;
2416;SDS011;1219;48.736;9.330;2022-08-19T00:04:59;13.30;;;12.30;;
2416;SDS011;1219;48.736;9.330;2022-08-19T00:07:25;13.23;;;12.03;;
2416;SDS011;1219;48.736;9.330;2022-08-19T00:09:51;14.33;;;13.13;;
2416;SDS011;1219;48.736;9.330;2022-08-19T00:12:18;13.67;;;12.47;;
2416;SDS011;1219;48.736;9.330;2022-08-19T00:14:45;14.43;;;13.00;;
2416;SDS011;1219;48.736;9.330;2022-08-19T00:17:10;14.63;;;13.23;;
2416;SDS011;1219;48.736;9.330;2022-08-19T00:19:37;16.30;;;14.80;;
2416;SDS011;1219;48.736;9.330;2022-08-19T00:22:04;15.00;;;13.60;;
2416;SDS011;1219;48.736;9.330;2022-08-19T00:24:31;14.33;;;13.00;;
2416;SDS011;1219;48.736;9.330;2022-08-19T00:26:57;13.67;;;12.47;;
2416;SDS011;1219;48.736;9.330;2022-08-19T00:29:24;16.13;;;14.67;;
2416;SDS011;1219;48.736;9.330;2022-08-19T00:31:51;15.90;;;14.33;;
2416;SDS011;1219;48.736;9.330;2022-08-19T00:34:21;15.50;;;14.10;;
2416;SDS011;1219;48.736;9.330;2022-08-19T00:36:48;14.10;;;12.80;;
2416;SDS011;1219;48.736;9.330;2022-08-19T00:39:14;16.70;;;15.00;;
2416;SDS011;1219;48.736;9.330;2022-08-19T00:41:41;16.33;;;14.33;;
2416;SDS011;1219;48.736;9.330;2022-08-19T00:46:33;15.47;;;14.07;;
2416;SDS011;1219;48.736;9.330;2022-08-19T00:49:02;15.63;;;14.17;;
2416;SDS011;1219;48.736;9.330;2022-08-19T00:51:32;16.50;;;14.87;;
2416;SDS011;1219;48.736;9.330;2022-08-19T00:53:58;16.23;;;14.67;;
2416;SDS011;1219;48.736;9.330;2022-08-19T00:56:25;15.50;;;14.20;;
2416;SDS011;1219;48.736;9.330;2022-08-19T00:58:52;16.80;;;15.20;;
2416;SDS011;1219;48.736;9.330;2022-08-19T01:01:18;16.27;;;14.67;;
2416;SDS011;1219;48.736;9.330;2022-08-19T01:03:44;16.00;;;14.40;;
2416;SDS011;1219;48.736;9.330;2022-08-19T01:06:10;16.57;;;14.97;;
2416;SDS011;1219;48.736;9.330;2022-08-19T01:08:36;16.10;;;14.60;;
2416;SDS011;1219;48.736;9.330;2022-08-19T01:11:02;15.77;;;14.17;;
2416;SDS011;1219;48.736;9.330;2022-08-19T01:13:29;15.90;;;14.40;;
2416;SDS011;1219;48.736;9.330;2022-08-19T01:15:57;16.30;;;14.80;;
2416;SDS011;1219;48.736;9.330;2022-08-19T01:18:23;17.03;;;15.23;;
2416;SDS011;1219;48.736;9.330;2022-08-19T01:20:50;15.17;;;13.77;;
2416;SDS011;1219;48.736;9.330;2022-08-19T01:23:17;16.40;;;14.73;;
2416;SDS011;1219;48.736;9.330;2022-08-19T01:25:44;16.67;;;15.07;;
2416;SDS011;1219;48.736;9.330;2022-08-19T01:28:14;16.37;;;14.87;;
2416;SDS011;1219;48.736;9.330;2022-08-19T01:30:41;15.70;;;14.20;;
2416;SDS011;1219;48.736;9.330;2022-08-19T01:33:07;16.70;;;14.10;;
2416;SDS011;1219;48.736;9.330;2022-08-19T01:35:33;16.30;;;14.70;;
2416;SDS011;1219;48.736;9.330;2022-08-19T01:38:02;17.23;;;15.40;;
2416;SDS011;1219;48.736;9.330;2022-08-19T01:40:32;17.23;;;15.50;;
2416;SDS011;1219;48.736;9.330;2022-08-19T01:42:58;15.13;;;13.83;;
2416;SDS011;1219;48.736;9.330;2022-08-19T01:45:26;16.67;;;14.97;;
2416;SDS011;1219;48.736;9.330;2022-08-19T01:47:53;15.33;;;13.87;;
2416;SDS011;1219;48.736;9.330;2022-08-19T01:50:19;15.90;;;14.27;;
2416;SDS011;1219;48.736;9.330;2022-08-19T01:52:46;15.77;;;14.23;;
2416;SDS011;1219;48.736;9.330;2022-08-19T01:55:17;15.60;;;14.30;;
2416;SDS011;1219;48.736;9.330;2022-08-19T01:57:44;16.53;;;14.83;;
2416;SDS011;1219;48.736;9.330;2022-08-19T02:00:12;14.77;;;13.27;;
2416;SDS011;1219;48.736;9.330;2022-08-19T02:02:40;17.40;;;14.07;;
2416;SDS011;1219;48.736;9.330;2022-08-19T02:05:06;16.10;;;14.43;;
2416;SDS011;1219;48.736;9.330;2022-08-19T02:07:33;15.40;;;13.70;;
2416;SDS011;1219;48.736;9.330;2022-08-19T02:10:00;15.83;;;14.33;;
2416;SDS011;1219;48.736;9.330;2022-08-19T02:12:28;16.00;;;14.20;;
2416;SDS011;1219;48.736;9.330;2022-08-19T02:14:54;15.50;;;14.00;;
2416;SDS011;1219;48.736;9.330;2022-08-19T02:17:20;16.03;;;14.43;;
2416;SDS011;1219;48.736;9.330;2022-08-19T02:19:46;16.37;;;14.67;;
2416;SDS011;1219;48.736;9.330;2022-08-19T02:22:12;14.83;;;13.43;;
2416;SDS011;1219;48.736;9.330;2022-08-19T02:24:38;15.73;;;14.13;;
2416;SDS011;1219;48.736;9.330;2022-08-19T02:27:04;16.00;;;14.50;;
2416;SDS011;1219;48.736;9.330;2022-08-19T02:29:30;14.17;;;12.93;;
2416;SDS011;1219;48.736;9.330;2022-08-19T02:31:56;15.30;;;13.17;;
2416;SDS011;1219;48.736;9.330;2022-08-19T02:34:23;17.43;;;15.70;;
2416;SDS011;1219;48.736;9.330;2022-08-19T02:36:50;17.30;;;15.70;;
2416;SDS011;1219;48.736;9.330;2022-08-19T02:39:16;17.83;;;13.93;;
2416;SDS011;1219;48.736;9.330;2022-08-19T02:41:41;18.30;;;14.07;;
2416;SDS011;1219;48.736;9.330;2022-08-19T02:44:07;18.40;;;16.50;;
2416;SDS011;1219;48.736;9.330;2022-08-19T02:46:34;17.10;;;15.37;;
2416;SDS011;1219;48.736;9.330;2022-08-19T02:49:01;16.77;;;14.13;;
2416;SDS011;1219;48.736;9.330;2022-08-19T02:51:29;16.80;;;15.13;;
2416;SDS011;1219;48.736;9.330;2022-08-19T02:53:55;18.37;;;15.50;;
2416;SDS011;1219;48.736;9.330;2022-08-19T02:56:21;21.73;;;15.67;;
2416;SDS011;1219;48.736;9.330;2022-08-19T02:58:47;18.27;;;15.37;;
2416;SDS011;1219;48.736;9.330;2022-08-19T03:01:29;18.37;;;16.40;;
2416;SDS011;1219;48.736;9.330;2022-08-19T03:03:56;18.23;;;16.03;;
2416;SDS011;1219;48.736;9.330;2022-08-19T03:06:23;18.47;;;16.10;;
2416;SDS011;1219;48.736;9.330;2022-08-19T03:08:49;19.57;;;16.17;;
2416;SDS011;1219;48.736;9.330;2022-08-19T03:11:17;18.30;;;16.30;;
2416;SDS011;1219;48.736;9.330;2022-08-19T03:13:43;18.80;;;16.80;;
2416;SDS011;1219;48.736;9.330;2022-08-19T03:16:09;17.03;;;15.10;;
2416;SDS011;1219;48.736;9.330;2022-08-19T03:18:36;19.47;;;15.97;;
2416;SDS011;1219;48.736;9.330;2022-08-19T03:21:02;20.27;;;15.70;;
2416;SDS011;1219;48.736;9.330;2022-08-19T03:23:27;20.03;;;16.00;;
2416;SDS011;1219;48.736;9.330;2022-08-19T03:25:53;18.37;;;15.87;;
2416;SDS011;1219;48.736;9.330;2022-08-19T03:28:20;18.50;;;16.50;;
2416;SDS011;1219;48.736;9.330;2022-08-19T03:31:00;19.00;;;16.30;;
2416;SDS011;1219;48.736;9.330;2022-08-19T03:33:28;19.47;;;17.37;;
2416;SDS011;1219;48.736;9.330;2022-08-19T03:36:07;19.03;;;17.03;;
2416;SDS011;1219;48.736;9.330;2022-08-19T03:38:35;22.00;;;18.50;;
2416;SDS011;1219;48.736;9.330;2022-08-19T03:41:06;18.97;;;17.03;;
2416;SDS011;1219;48.736;9.330;2022-08-19T03:43:34;20.67;;;16.20;;
2416;SDS011;1219;48.736;9.330;2022-08-19T03:46:07;23.23;;;17.70;;
2416;SDS011;1219;48.736;9.330;2022-08-19T03:48:34;18.60;;;16.60;;
2416;SDS011;1219;48.736;9.330;2022-08-19T03:51:01;22.73;;;18.33;;
2416;SDS011;1219;48.736;9.330;2022-08-19T03:53:28;23.43;;;19.03;;
2416;SDS011;1219;48.736;9.330;2022-08-19T03:55:55;19.60;;;17.50;;
2416;SDS011;1219;48.736;9.330;2022-08-19T03:58:21;22.87;;;18.00;;
2416;SDS011;1219;48.736;9.330;2022-08-19T04:00:48;25.33;;;19.50;;
2416;SDS011;1219;48.736;9.330;2022-08-19T04:03:14;21.90;;;19.00;;
2416;SDS011;1219;48.736;9.330;2022-08-19T04:05:40;18.43;;;16.40;;
2416;SDS011;1219;48.736;9.330;2022-08-19T04:08:06;21.20;;;17.70;;
2416;SDS011;1219;48.736;9.330;2022-08-19T04:10:35;20.43;;;18.37;;
2416;SDS011;1219;48.736;9.330;2022-08-19T04:13:02;20.13;;;18.00;;
2416;SDS011;1219;48.736;9.330;2022-08-19T04:15:29;20.83;;;17.10;;
2416;SDS011;1219;48.736;9.330;2022-08-19T04:17:58;20.87;;;18.00;;
2416;SDS011;1219;48.736;9.330;2022-08-19T04:20:24;20.33;;;18.23;;
2416;SDS011;1219;48.736;9.330;2022-08-19T04:22:50;18.93;;;16.80;;
2416;SDS011;1219;48.736;9.330;2022-08-19T04:25:16;21.70;;;17.40;;
2416;SDS011;1219;48.736;9.330;2022-08-19T04:27:41;20.10;;;18.00;;
2416;SDS011;1219;48.736;9.330;2022-08-19T04:30:11;20.90;;;17.87;;
2416;SDS011;1219;48.736;9.330;2022-08-19T04:32:37;20.13;;;18.10;;
2416;SDS011;1219;48.736;9.330;2022-08-19T04:35:03;22.07;;;17.70;;
2416;SDS011;1219;48.736;9.330;2022-08-19T04:37:30;22.00;;;18.97;;
2416;SDS011;1219;48.736;9.330;2022-08-19T04:39:58;20.23;;;18.00;;
2416;SDS011;1219;48.736;9.330;2022-08-19T04:42:42;22.03;;;18.47;;
2416;SDS011;1219;48.736;9.330;2022-08-19T04:45:10;22.20;;;19.97;;
2416;SDS011;1219;48.736;9.330;2022-08-19T04:47:37;22.03;;;19.20;;
2416;SDS011;1219;48.736;9.330;2022-08-19T04:50:04;23.47;;;20.40;;
2416;SDS011;1219;48.736;9.330;2022-08-19T04:52:30;20.83;;;18.37;;
2416;SDS011;1219;48.736;9.330;2022-08-19T04:54:57;24.70;;;19.03;;
2416;SDS011;1219;48.736;9.330;2022-08-19T04:57:23;21.57;;;19.27;;
2416;SDS011;1219;48.736;9.330;2022-08-19T04:59:53;20.47;;;18.47;;
2416;SDS011;1219;48.736;9.330;2022-08-19T05:02:19;24.80;;;19.83;;
2416;SDS011;1219;48.736;9.330;2022-08-19T05:04:49;22.60;;;19.70;;
2416;SDS011;1219;48.736;9.330;2022-08-19T05:07:15;24.70;;;18.90;;
2416;SDS011;1219;48.736;9.330;2022-08-19T05:09:41;22.03;;;19.50;;
2416;SDS011;1219;48.736;9.330;2022-08-19T05:12:07;26.13;;;20.47;;
2416;SDS011;1219;48.736;9.330;2022-08-19T05:14:33;21.53;;;19.00;;
2416;SDS011;1219;48.736;9.330;2022-08-19T05:17:01;22.37;;;20.00;;
2416;SDS011;1219;48.736;9.330;2022-08-19T05:19:27;21.87;;;19.37;;
2416;SDS011;1219;48.736;9.330;2022-08-19T05:22:12;20.40;;;17.57;;
2416;SDS011;1219;48.736;9.330;2022-08-19T05:24:56;21.53;;;18.87;;
2416;SDS011;1219;48.736;9.330;2022-08-19T05:27:22;19.83;;;17.57;;
2416;SDS011;1219;48.736;9.330;2022-08-19T05:29:48;21.87;;;19.53;;
2416;SDS011;1219;48.736;9.330;2022-08-19T05:32:14;24.17;;;18.67;;
2416;SDS011;1219;48.736;9.330;2022-08-19T05:34:40;21.90;;;19.47;;
2416;SDS011;1219;48.736;9.330;2022-08-19T05:37:06;24.00;;;19.80;;
2416;SDS011;1219;48.736;9.330;2022-08-19T05:39:34;23.67;;;20.57;;
2416;SDS011;1219;48.736;9.330;2022-08-19T05:42:02;23.30;;;20.50;;
2416;SDS011;1219;48.736;9.330;2022-08-19T05:44:29;25.10;;;21.07;;
2416;SDS011;1219;48.736;9.330;2022-08-19T05:46:56;26.80;;;20.27;;
2416;SDS011;1219;48.736;9.330;2022-08-19T05:49:22;28.60;;;20.87;;
2416;SDS011;1219;48.736;9.330;2022-08-19T05:51:50;23.43;;;20.93;;
2416;SDS011;1219;48.736;9.330;2022-08-19T05:54:16;27.97;;;21.37;;
2416;SDS011;1219;48.736;9.330;2022-08-19T05:56:43;22.57;;;20.20;;
2416;SDS011;1219;48.736;9.330;2022-08-19T05:59:09;20.87;;;18.13;;
2416;SDS011;1219;48.736;9.330;2022-08-19T06:01:37;21.90;;;19.60;;
2416;SDS011;1219;48.736;9.330;2022-08-19T06:04:03;24.83;;;21.13;;
2416;SDS011;1219;48.736;9.330;2022-08-19T06:06:29;24.47;;;20.33;;
2416;SDS011;1219;48.736;9.330;2022-08-19T06:08:55;22.53;;;20.23;;
2416;SDS011;1219;48.736;9.330;2022-08-19T06:11:32;24.13;;;19.33;;
2416;SDS011;1219;48.736;9.330;2022-08-19T06:14:00;22.63;;;20.20;;
2416;SDS011;1219;48.736;9.330;2022-08-19T06:16:26;22.80;;;19.97;;
2416;SDS011;1219;48.736;9.330;2022-08-19T06:18:53;23.83;;;21.20;;
2416;SDS011;1219;48.736;9.330;2022-08-19T06:21:21;23.53;;;20.63;;
2416;SDS011;1219;48.736;9.330;2022-08-19T06:23:48;22.83;;;20.40;;
2416;SDS011;1219;48.736;9.330;2022-08-19T06:26:15;24.50;;;21.90;;
2416;SDS011;1219;48.736;9.330;2022-08-19T06:28:41;21.87;;;19.57;;
2416;SDS011;1219;48.736;9.330;2022-08-19T06:31:11;22.73;;;19.40;;
2416;SDS011;1219;48.736;9.330;2022-08-19T06:33:39;22.37;;;19.57;;
2416;SDS011;1219;48.736;9.330;2022-08-19T06:36:05;22.70;;;20.40;;
2416;SDS011;1219;48.736;9.330;2022-08-19T06:38:31;23.40;;;20.60;;
2416;SDS011;1219;48.736;9.330;2022-08-19T06:41:02;23.33;;;19.43;;
2416;SDS011;1219;48.736;9.330;2022-08-19T06:43:28;25.40;;;22.00;;
2416;SDS011;1219;48.736;9.330;2022-08-19T06:45:54;24.77;;;22.10;;
2416;SDS011;1219;48.736;9.330;2022-08-19T06:48:20;22.73;;;20.37;;
2416;SDS011;1219;48.736;9.330;2022-08-19T06:50:46;22.97;;;20.47;;
2416;SDS011;1219;48.736;9.330;2022-08-19T06:53:13;23.80;;;21.23;;
2416;SDS011;1219;48.736;9.330;2022-08-19T06:55:39;24.10;;;21.57;;
2416;SDS011;1219;48.736;9.330;2022-08-19T06:58:05;26.07;;;23.23;;
2416;SDS011;1219;48.736;9.330;2022-08-19T07:00:31;23.57;;;21.07;;
2416;SDS011;1219;48.736;9.330;2022-08-19T07:02:57;25.10;;;22.50;;
2416;SDS011;1219;48.736;9.330;2022-08-19T07:05:25;27.33;;;24.43;;
2416;SDS011;1219;48.736;9.330;2022-08-19T07:07:51;24.77;;;22.20;;
2416;SDS011;1219;48.736;9.330;2022-08-19T07:10:17;28.97;;;22.20;;
2416;SDS011;1219;48.736;9.330;2022-08-19T07:12:44;32.67;;;24.17;;
2416;SDS011;1219;48.736;9.330;2022-08-19T07:15:10;26.70;;;23.43;;
2416;SDS011;1219;48.736;9.330;2022-08-19T07:17:37;29.03;;;24.10;;
2416;SDS011;1219;48.736;9.330;2022-08-19T07:20:04;27.60;;;24.17;;
2416;SDS011;1219;48.736;9.330;2022-08-19T07:22:31;29.23;;;24.17;;
2416;SDS011;1219;48.736;9.330;2022-08-19T07:24:58;25.30;;;22.70;;
2416;SDS011;1219;48.736;9.330;2022-08-19T07:27:24;26.20;;;23.47;;
2416;SDS011;1219;48.736;9.330;2022-08-19T07:29:52;28.53;;;25.00;;
2416;SDS011;1219;48.736;9.330;2022-08-19T07:32:18;31.23;;;25.00;;
2416;SDS011;1219;48.736;9.330;2022-08-19T07:34:44;26.50;;;23.43;;
2416;SDS011;1219;48.736;9.330;2022-08-19T07:37:10;29.83;;;22.77;;
2416;SDS011;1219;48.736;9.330;2022-08-19T07:39:37;26.97;;;23.23;;
2416;SDS011;1219;48.736;9.330;2022-08-19T07:42:07;26.60;;;23.13;;
2416;SDS011;1219;48.736;9.330;2022-08-19T07:44:34;27.53;;;24.57;;
2416;SDS011;1219;48.736;9.330;2022-08-19T07:47:00;30.20;;;24.87;;
2416;SDS011;1219;48.736;9.330;2022-08-19T07:49:26;28.80;;;24.80;;
2416;SDS011;1219;48.736;9.330;2022-08-19T07:52:00;30.23;;;26.03;;
2416;SDS011;1219;48.736;9.330;2022-08-19T07:54:28;30.27;;;24.23;;
2416;SDS011;1219;48.736;9.330;2022-08-19T07:56:54;26.80;;;23.03;;
2416;SDS011;1219;48.736;9.330;2022-08-19T07:59:21;29.37;;;26.27;;
2416;SDS011;1219;48.736;9.330;2022-08-19T08:01:47;33.03;;;25.63;;
2416;SDS011;1219;48.736;9.330;2022-08-19T08:04:15;26.70;;;23.90;;
2416;SDS011;1219;48.736;9.330;2022-08-19T08:07:00;29.07;;;25.60;;
2416;SDS011;1219;48.736;9.330;2022-08-19T08:09:44;35.53;;;26.67;;
2416;SDS011;1219;48.736;9.330;2022-08-19T08:12:12;28.60;;;24.07;;
2416;SDS011;1219;48.736;9.330;2022-08-19T08:14:41;28.27;;;22.77;;
2416;SDS011;1219;48.736;9.330;2022-08-19T08:17:08;26.70;;;23.70;;
2416;SDS011;1219;48.736;9.330;2022-08-19T08:19:34;28.30;;;23.77;;
2416;SDS011;1219;48.736;9.330;2022-08-19T08:22:00;26.37;;;23.57;;
2416;SDS011;1219;48.736;9.330;2022-08-19T08:24:28;25.10;;;22.40;;
2416;SDS011;1219;48.736;9.330;2022-08-19T08:26:55;29.40;;;25.27;;
2416;SDS011;1219;48.736;9.330;2022-08-19T08:29:22;24.40;;;21.90;;
2416;SDS011;1219;48.736;9.330;2022-08-19T08:31:48;25.30;;;22.70;;
2416;SDS011;1219;48.736;9.330;2022-08-19T08:34:14;26.63;;;23.43;;
2416;SDS011;1219;48.736;9.330;2022-08-19T08:36:42;27.10;;;24.20;;
2416;SDS011;1219;48.736;9.330;2022-08-19T08:39:10;25.77;;;23.13;;
2416;SDS011;1219;48.736;9.330;2022-08-19T08:41:39;28.07;;;24.30;;
2416;SDS011;1219;48.736;9.330;2022-08-19T08:44:11;23.60;;;21.10;;
2416;SDS011;1219;48.736;9.330;2022-08-19T08:46:40;23.77;;;21.37;;
2416;SDS011;1219;48.736;9.330;2022-08-19T08:51:44;23.37;;;20.97;;
2416;SDS011;1219;48.736;9.330;2022-08-19T08:54:13;26.30;;;22.50;;
2416;SDS011;1219;48.736;9.330;2022-08-19T08:56:42;22.87;;;20.40;;
2416;SDS011;1219;48.736;9.330;2022-08-19T09:01:53;26.93;;;21.27;;
2416;SDS011;1219;48.736;9.330;2022-08-19T09:04:19;23.37;;;20.80;;
2416;SDS011;1219;48.736;9.330;2022-08-19T09:06:55;24.93;;;22.20;;
2416;SDS011;1219;48.736;9.330;2022-08-19T09:09:27;24.30;;;21.53;;
2416;SDS011;1219;48.736;9.330;2022-08-19T09:14:36;23.13;;;20.80;;
2416;SDS011;1219;48.736;9.330;2022-08-19T09:17:06;27.67;;;21.40;;
2416;SDS011;1219;48.736;9.330;2022-08-19T09:19:33;26.07;;;22.17;;
2416;SDS011;1219;48.736;9.330;2022-08-19T09:21:59;21.97;;;19.77;;
2416;SDS011;1219;48.736;9.330;2022-08-19T09:24:25;22.87;;;20.43;;
2416;SDS011;1219;48.736;9.330;2022-08-19T09:26:51;23.60;;;20.33;;
2416;SDS011;1219;48.736;9.330;2022-08-19T09:29:18;23.43;;;20.20;;
2416;SDS011;1219;48.736;9.330;2022-08-19T09:31:45;22.57;;;20.27;;
2416;SDS011;1219;48.736;9.330;2022-08-19T09:34:11;25.33;;;19.93;;
2416;SDS011;1219;48.736;9.330;2022-08-19T09:36:37;24.90;;;20.90;;
2416;SDS011;1219;48.736;9.330;2022-08-19T09:39:04;22.43;;;20.13;;
2416;SDS011;1219;48.736;9.330;2022-08-19T09:41:30;22.60;;;20.03;;
2416;SDS011;1219;48.736;9.330;2022-08-19T09:43:57;22.40;;;20.10;;
2416;SDS011;1219;48.736;9.330;2022-08-19T09:46:24;24.00;;;21.10;;
2416;SDS011;1219;48.736;9.330;2022-08-19T09:48:51;26.50;;;21.43;;
2416;SDS011;1219;48.736;9.330;2022-08-19T09:51:18;23.50;;;20.80;;
2416;SDS011;1219;48.736;9.330;2022-08-19T09:53:44;23.67;;;21.17;;
2416;SDS011;1219;48.736;9.330;2022-08-19T09:56:11;23.10;;;20.67;;
2416;SDS011;1219;48.736;9.330;2022-08-19T09:58:38;25.10;;;22.60;;
2416;SDS011;1219;48.736;9.330;2022-08-19T10:01:04;25.90;;;21.07;;
2416;SDS011;1219;48.736;9.330;2022-08-19T10:03:31;25.20;;;20.40;;
2416;SDS011;1219;48.736;9.330;2022-08-19T10:05:58;24.00;;;21.50;;
2416;SDS011;1219;48.736;9.330;2022-08-19T10:08:25;22.37;;;20.23;;
2416;SDS011;1219;48.736;9.330;2022-08-19T10:10:52;22.93;;;20.60;;
2416;SDS011;1219;48.736;9.330;2022-08-19T10:13:19;24.73;;;22.03;;
2416;SDS011;1219;48.736;9.330;2022-08-19T10:15:47;23.77;;;21.27;;
2416;SDS011;1219;48.736;9.330;2022-08-19T10:18:15;24.30;;;21.63;;
2416;SDS011;1219;48.736;9.330;2022-08-19T10:20:45;24.47;;;21.97;;
2416;SDS011;1219;48.736;9.330;2022-08-19T10:23:12;24.03;;;21.50;;
2416;SDS011;1219;48.736;9.330;2022-08-19T10:25:38;26.70;;;23.90;;
2416;SDS011;1219;48.736;9.330;2022-08-19T10:28:04;25.00;;;22.37;;
2416;SDS011;1219;48.736;9.330;2022-08-19T10:30:31;25.57;;;22.87;;
2416;SDS011;1219;48.736;9.330;2022-08-19T10:32:57;23.70;;;21.20;;
2416;SDS011;1219;48.736;9.330;2022-08-19T10:35:23;26.10;;;22.30;;
2416;SDS011;1219;48.736;9.330;2022-08-19T10:37:54;23.80;;;21.47;;
2416;SDS011;1219;48.736;9.330;2022-08-19T10:40:24;25.23;;;22.53;;
2416;SDS011;1219;48.736;9.330;2022-08-19T10:42:50;27.40;;;23.10;;
2416;SDS011;1219;48.736;9.330;2022-08-19T10:45:16;27.80;;;22.83;;
2416;SDS011;1219;48.736;9.330;2022-08-19T10:47:42;27.43;;;23.90;;
2416;SDS011;1219;48.736;9.330;2022-08-19T10:50:08;24.70;;;22.10;;
2416;SDS011;1219;48.736;9.330;2022-08-19T10:52:53;26.27;;;21.40;;
2416;SDS011;1219;48.736;9.330;2022-08-19T10:55:20;27.63;;;24.37;;
2416;SDS011;1219;48.736;9.330;2022-08-19T10:58:12;25.20;;;22.57;;
2416;SDS011;1219;48.736;9.330;2022-08-19T11:00:39;27.07;;;24.00;;
2416;SDS011;1219;48.736;9.330;2022-08-19T11:03:05;25.50;;;22.80;;
2416;SDS011;1219;48.736;9.330;2022-08-19T11:05:31;27.43;;;24.53;;
2416;SDS011;1219;48.736;9.330;2022-08-19T11:07:57;27.40;;;24.47;;
2416;SDS011;1219;48.736;9.330;2022-08-19T11:10:23;32.53;;;26.50;;
2416;SDS011;1219;48.736;9.330;2022-08-19T11:12:49;28.43;;;25.33;;
2416;SDS011;1219;48.736;9.330;2022-08-19T11:15:19;27.03;;;24.17;;
2416;SDS011;1219;48.736;9.330;2022-08-19T11:17:46;31.40;;;25.10;;
2416;SDS011;1219;48.736;9.330;2022-08-19T11:20:12;28.37;;;25.40;;
2416;SDS011;1219;48.736;9.330;2022-08-19T11:22:39;32.43;;;25.07;;
2416;SDS011;1219;48.736;9.330;2022-08-19T11:25:05;28.80;;;25.63;;
2416;SDS011;1219;48.736;9.330;2022-08-19T11:27:31;32.03;;;25.07;;
2416;SDS011;1219;48.736;9.330;2022-08-19T11:29:58;27.20;;;24.20;;
2416;SDS011;1219;48.736;9.330;2022-08-19T11:32:24;30.77;;;24.57;;
2416;SDS011;1219;48.736;9.330;2022-08-19T11:34:51;29.43;;;24.30;;
2416;SDS011;1219;48.736;9.330;2022-08-19T11:37:17;28.27;;;24.03;;
2416;SDS011;1219;48.736;9.330;2022-08-19T11:39:43;29.53;;;25.40;;
2416;SDS011;1219;48.736;9.330;2022-08-19T11:42:09;28.40;;;24.40;;
2416;SDS011;1219;48.736;9.330;2022-08-19T11:44:53;25.77;;;23.00;;
2416;SDS011;1219;48.736;9.330;2022-08-19T11:47:19;30.27;;;25.03;;
2416;SDS011;1219;48.736;9.330;2022-08-19T11:49:46;28.67;;;25.63;;
2416;SDS011;1219;48.736;9.330;2022-08-19T11:52:12;28.83;;;24.50;;
2416;SDS011;1219;48.736;9.330;2022-08-19T11:54:38;27.53;;;23.60;;
2416;SDS011;1219;48.736;9.330;2022-08-19T11:57:04;27.23;;;24.40;;
2416;SDS011;1219;48.736;9.330;2022-08-19T11:59:30;30.10;;;25.27;;
2416;SDS011;1219;48.736;9.330;2022-08-19T12:01:56;29.90;;;24.67;;
2416;SDS011;1219;48.736;9.330;2022-08-19T12:04:22;29.07;;;23.73;;
2416;SDS011;1219;48.736;9.330;2022-08-19T12:06:48;28.70;;;24.90;;
2416;SDS011;1219;48.736;9.330;2022-08-19T12:09:15;30.33;;;24.93;;
2416;SDS011;1219;48.736;9.330;2022-08-19T12:11:42;28.97;;;25.60;;
2416;SDS011;1219;48.736;9.330;2022-08-19T12:14:09;33.53;;;24.93;;
2416;SDS011;1219;48.736;9.330;2022-08-19T12:16:36;31.20;;;26.27;;
2416;SDS011;1219;48.736;9.330;2022-08-19T12:19:03;30.20;;;26.50;;
2416;SDS011;1219;48.736;9.330;2022-08-19T12:21:30;29.27;;;26.20;;
2416;SDS011;1219;48.736;9.330;2022-08-19T12:23:57;29.07;;;25.90;;
2416;SDS011;1219;48.736;9.330;2022-08-19T12:26:24;30.40;;;25.90;;
2416;SDS011;1219;48.736;9.330;2022-08-19T12:28:50;33.40;;;26.97;;
2416;SDS011;1219;48.736;9.330;2022-08-19T12:31:16;29.83;;;26.10;;
2416;SDS011;1219;48.736;9.330;2022-08-19T12:33:44;33.37;;;26.10;;
2416;SDS011;1219;48.736;9.330;2022-08-19T12:36:11;29.00;;;24.77;;
2416;SDS011;1219;48.736;9.330;2022-08-19T12:38:37;33.03;;;26.37;;
2416;SDS011;1219;48.736;9.330;2022-08-19T12:41:04;32.47;;;27.07;;
2416;SDS011;1219;48.736;9.330;2022-08-19T12:43:31;30.47;;;25.37;;
2416;SDS011;1219;48.736;9.330;2022-08-19T12:45:57;27.33;;;24.23;;
2416;SDS011;1219;48.736;9.330;2022-08-19T12:48:23;28.50;;;24.03;;
2416;SDS011;1219;48.736;9.330;2022-08-19T12:50:49;27.23;;;22.80;;
2416;SDS011;1219;48.736;9.330;2022-08-19T12:53:15;28.20;;;25.23;;
2416;SDS011;1219;48.736;9.330;2022-08-19T12:55:42;30.10;;;25.80;;
2416;SDS011;1219;48.736;9.330;2022-08-19T12:58:08;28.30;;;23.90;;
2416;SDS011;1219;48.736;9.330;2022-08-19T13:00:35;30.43;;;24.03;;
2416;SDS011;1219;48.736;9.330;2022-08-19T13:03:01;24.77;;;22.17;;
2416;SDS011;1219;48.736;9.330;2022-08-19T13:05:28;28.33;;;22.83;;
2416;SDS011;1219;48.736;9.330;2022-08-19T13:07:55;29.63;;;25.50;;
2416;SDS011;1219;48.736;9.330;2022-08-19T13:10:21;29.60;;;24.60;;
2416;SDS011;1219;48.736;9.330;2022-08-19T13:12:48;26.87;;;23.97;;
2416;SDS011;1219;48.736;9.330;2022-08-19T13:15:15;29.67;;;24.30;;
2416;SDS011;1219;48.736;9.330;2022-08-19T13:17:44;33.00;;;26.73;;
2416;SDS011;1219;48.736;9.330;2022-08-19T13:20:12;30.53;;;26.07;;
2416;SDS011;1219;48.736;9.330;2022-08-19T13:22:38;32.07;;;26.27;;
2416;SDS011;1219;48.736;9.330;2022-08-19T13:25:05;28.73;;;25.60;;
2416;SDS011;1219;48.736;9.330;2022-08-19T13:27:31;31.37;;;26.80;;
2416;SDS011;1219;48.736;9.330;2022-08-19T13:29:57;32.00;;;26.20;;
2416;SDS011;1219;48.736;9.330;2022-08-19T13:32:42;32.67;;;26.97;;
2416;SDS011;1219;48.736;9.330;2022-08-19T13:35:27;30.63;;;26.37;;
2416;SDS011;1219;48.736;9.330;2022-08-19T13:37:53;29.87;;;26.57;;
2416;SDS011;1219;48.736;9.330;2022-08-19T13:40:20;33.27;;;26.80;;
2416;SDS011;1219;48.736;9.330;2022-08-19T13:42:49;30.83;;;26.77;;
2416;SDS011;1219;48.736;9.330;2022-08-19T13:45:16;36.13;;;27.90;;
2416;SDS011;1219;48.736;9.330;2022-08-19T13:47:45;28.70;;;25.60;;
2416;SDS011;1219;48.736;9.330;2022-08-19T13:50:11;34.20;;;26.93;;
2416;SDS011;1219;48.736;9.330;2022-08-19T13:52:38;32.60;;;26.00;;
2416;SDS011;1219;48.736;9.330;2022-08-19T13:55:04;33.37;;;25.97;;
2416;SDS011;1219;48.736;9.330;2022-08-19T13:57:30;36.33;;;29.53;;
2416;SDS011;1219;48.736;9.330;2022-08-19T13:59:57;34.43;;;29.43;;
2416;SDS011;1219;48.736;9.330;2022-08-19T14:02:23;34.80;;;27.70;;
2416;SDS011;1219;48.736;9.330;2022-08-19T14:04:49;34.80;;;27.87;;
2416;SDS011;1219;48.736;9.330;2022-08-19T14:07:15;33.23;;;28.07;;
2416;SDS011;1219;48.736;9.330;2022-08-19T14:09:41;32.47;;;27.10;;
2416;SDS011;1219;48.736;9.330;2022-08-19T14:12:07;31.20;;;27.20;;
2416;SDS011;1219;48.736;9.330;2022-08-19T14:14:39;35.17;;;28.80;;
2416;SDS011;1219;48.736;9.330;2022-08-19T14:17:06;35.30;;;26.40;;
2416;SDS011;1219;48.736;9.330;2022-08-19T14:19:32;33.07;;;28.07;;
2416;SDS011;1219;48.736;9.330;2022-08-19T14:21:58;32.77;;;27.73;;
2416;SDS011;1219;48.736;9.330;2022-08-19T14:24:24;36.20;;;30.77;;
2416;SDS011;1219;48.736;9.330;2022-08-19T14:26:50;32.23;;;26.27;;
2416;SDS011;1219;48.736;9.330;2022-08-19T14:29:16;35.20;;;28.63;;
2416;SDS011;1219;48.736;9.330;2022-08-19T14:31:42;30.87;;;26.87;;
2416;SDS011;1219;48.736;9.330;2022-08-19T14:34:09;31.13;;;27.47;;
2416;SDS011;1219;48.736;9.330;2022-08-19T14:36:36;34.13;;;26.10;;
2416;SDS011;1219;48.736;9.330;2022-08-19T14:39:02;33.17;;;27.67;;
2416;SDS011;1219;48.736;9.330;2022-08-19T14:41:28;36.73;;;27.83;;
2416;SDS011;1219;48.736;9.330;2022-08-19T14:43:55;31.03;;;27.67;;
2416;SDS011;1219;48.736;9.330;2022-08-19T14:46:25;31.67;;;27.10;;
2416;SDS011;1219;48.736;9.330;2022-08-19T14:48:53;32.97;;;27.13;;
2416;SDS011;1219;48.736;9.330;2022-08-19T14:51:20;31.00;;;27.23;;
2416;SDS011;1219;48.736;9.330;2022-08-19T14:53:46;34.80;;;26.77;;
2416;SDS011;1219;48.736;9.330;2022-08-19T14:56:22;30.13;;;26.83;;
2416;SDS011;1219;48.736;9.330;2022-08-19T14:58:48;29.60;;;25.00;;